sensor_id;sensor_type;location;lat;lon;timestamp;temperature;humidity
5617;DHT22;2830;50.656;7.568;2023-04-24T00:01:05;10.40;99.90
5617;DHT22;2830;50.656;7.568;2023-04-24T00:03:34;10.40;99.90
5617;DHT22;2830;50.656;7.568;2023-04-24T00:06:01;10.40;99.90
5617;DHT22;2830;50.656;7.568;2023-04-24T00:08:29;10.40;99.90
5617;DHT22;2830;50.656;7.568;2023-04-24T00:10:56;10.50;99.90
5617;DHT22;2830;50.656;7.568;2023-04-24T00:13:22;10.50;99.90
5617;DHT22;2830;50.656;7.568;2023-04-24T00:15:49;10.50;99.90
5617;DHT22;2830;50.656;7.568;2023-04-24T00:18:16;10.50;99.90
5617;DHT22;2830;50.656;7.568;2023-04-24T00:20:42;10.50;99.90
5617;DHT22;2830;50.656;7.568;2023-04-24T00:23:10;10.40;99.90
5617;DHT22;2830;50.656;7.568;2023-04-24T00:25:36;10.40;99.90
5617;DHT22;2830;50.656;7.568;2023-04-24T00:28:03;10.50;99.90
5617;DHT22;2830;50.656;7.568;2023-04-24T00:30:30;10.40;99.90
5617;DHT22;2830;50.656;7.568;2023-04-24T00:32:57;10.40;99.90
5617;DHT22;2830;50.656;7.568;2023-04-24T00:35:24;10.40;99.90
5617;DHT22;2830;50.656;7.568;2023-04-24T00:37:50;10.40;99.90
5617;DHT22;2830;50.656;7.568;2023-04-24T00:40:17;10.40;99.90
5617;DHT22;2830;50.656;7.568;2023-04-24T00:42:44;10.40;99.90
5617;DHT22;2830;50.656;7.568;2023-04-24T00:45:12;10.40;99.90
5617;DHT22;2830;50.656;7.568;2023-04-24T00:47:39;10.40;99.90
5617;DHT22;2830;50.656;7.568;2023-04-24T00:50:06;10.40;99.90
5617;DHT22;2830;50.656;7.568;2023-04-24T00:52:33;10.30;99.90
5617;DHT22;2830;50.656;7.568;2023-04-24T00:55:00;10.30;99.90
5617;DHT22;2830;50.656;7.568;2023-04-24T00:57:26;10.30;99.90
5617;DHT22;2830;50.656;7.568;2023-04-24T00:59:53;10.40;99.90
5617;DHT22;2830;50.656;7.568;2023-04-24T01:02:22;10.40;99.90
5617;DHT22;2830;50.656;7.568;2023-04-24T01:04:50;10.40;99.90
5617;DHT22;2830;50.656;7.568;2023-04-24T01:07:19;10.40;99.90
5617;DHT22;2830;50.656;7.568;2023-04-24T01:09:48;10.40;99.90
5617;DHT22;2830;50.656;7.568;2023-04-24T01:12:15;10.40;99.90
5617;DHT22;2830;50.656;7.568;2023-04-24T01:14:42;10.40;99.90
5617;DHT22;2830;50.656;7.568;2023-04-24T01:17:09;10.30;99.90
5617;DHT22;2830;50.656;7.568;2023-04-24T01:19:36;10.30;99.90
5617;DHT22;2830;50.656;7.568;2023-04-24T01:22:08;10.30;99.90
5617;DHT22;2830;50.656;7.568;2023-04-24T01:24:35;10.30;99.90
5617;DHT22;2830;50.656;7.568;2023-04-24T01:27:02;10.20;99.90
5617;DHT22;2830;50.656;7.568;2023-04-24T01:29:28;10.30;99.90
5617;DHT22;2830;50.656;7.568;2023-04-24T01:31:55;10.30;99.90
5617;DHT22;2830;50.656;7.568;2023-04-24T01:34:22;10.30;99.90
5617;DHT22;2830;50.656;7.568;2023-04-24T01:36:49;10.30;99.90
5617;DHT22;2830;50.656;7.568;2023-04-24T01:39:16;10.30;99.90
5617;DHT22;2830;50.656;7.568;2023-04-24T01:41:43;10.30;99.90
5617;DHT22;2830;50.656;7.568;2023-04-24T01:44:10;10.20;99.90
5617;DHT22;2830;50.656;7.568;2023-04-24T01:46:36;10.20;99.90
5617;DHT22;2830;50.656;7.568;2023-04-24T01:49:03;10.20;99.90
5617;DHT22;2830;50.656;7.568;2023-04-24T01:51:30;10.20;99.90
5617;DHT22;2830;50.656;7.568;2023-04-24T01:53:57;10.20;99.90
5617;DHT22;2830;50.656;7.568;2023-04-24T01:56:24;10.20;99.90
5617;DHT22;2830;50.656;7.568;2023-04-24T01:58:52;10.20;99.90
5617;DHT22;2830;50.656;7.568;2023-04-24T02:01:20;10.20;99.90
5617;DHT22;2830;50.656;7.568;2023-04-24T02:03:47;10.30;99.90
5617;DHT22;2830;50.656;7.568;2023-04-24T02:06:14;10.20;99.90
5617;DHT22;2830;50.656;7.568;2023-04-24T02:08:41;10.30;99.90
5617;DHT22;2830;50.656;7.568;2023-04-24T02:11:11;10.30;99.90
5617;DHT22;2830;50.656;7.568;2023-04-24T02:13:37;10.30;99.90
5617;DHT22;2830;50.656;7.568;2023-04-24T02:16:04;10.30;99.90
5617;DHT22;2830;50.656;7.568;2023-04-24T02:18:31;10.20;99.90
5617;DHT22;2830;50.656;7.568;2023-04-24T02:20:57;10.20;99.90
5617;DHT22;2830;50.656;7.568;2023-04-24T02:23:24;10.30;99.90
5617;DHT22;2830;50.656;7.568;2023-04-24T02:25:51;10.30;99.90
5617;DHT22;2830;50.656;7.568;2023-04-24T02:28:19;10.30;99.90
5617;DHT22;2830;50.656;7.568;2023-04-24T02:30:46;10.30;99.90
5617;DHT22;2830;50.656;7.568;2023-04-24T02:33:13;10.30;99.90
5617;DHT22;2830;50.656;7.568;2023-04-24T02:35:39;10.30;99.90
5617;DHT22;2830;50.656;7.568;2023-04-24T02:38:06;10.30;99.90
5617;DHT22;2830;50.656;7.568;2023-04-24T02:40:33;10.30;99.90
5617;DHT22;2830;50.656;7.568;2023-04-24T02:42:59;10.20;99.90
5617;DHT22;2830;50.656;7.568;2023-04-24T02:45:26;10.20;99.90
5617;DHT22;2830;50.656;7.568;2023-04-24T02:47:52;10.20;99.90
5617;DHT22;2830;50.656;7.568;2023-04-24T02:50:19;10.10;99.90
5617;DHT22;2830;50.656;7.568;2023-04-24T02:52:46;10.10;99.90
5617;DHT22;2830;50.656;7.568;2023-04-24T02:55:13;10.10;99.90
5617;DHT22;2830;50.656;7.568;2023-04-24T02:57:40;10.00;99.90
5617;DHT22;2830;50.656;7.568;2023-04-24T03:00:07;9.90;99.90
5617;DHT22;2830;50.656;7.568;2023-04-24T03:02:35;9.80;99.90
5617;DHT22;2830;50.656;7.568;2023-04-24T03:05:02;9.70;99.90
5617;DHT22;2830;50.656;7.568;2023-04-24T03:07:29;9.60;99.80
5617;DHT22;2830;50.656;7.568;2023-04-24T03:09:57;9.50;99.90
5617;DHT22;2830;50.656;7.568;2023-04-24T03:12:24;9.40;99.80
5617;DHT22;2830;50.656;7.568;2023-04-24T03:14:51;9.30;99.90
5617;DHT22;2830;50.656;7.568;2023-04-24T03:17:18;9.10;99.90
5617;DHT22;2830;50.656;7.568;2023-04-24T03:19:45;9.00;99.90
5617;DHT22;2830;50.656;7.568;2023-04-24T03:22:11;8.90;99.90
5617;DHT22;2830;50.656;7.568;2023-04-24T03:24:38;8.70;99.90
5617;DHT22;2830;50.656;7.568;2023-04-24T03:27:05;8.60;99.90
5617;DHT22;2830;50.656;7.568;2023-04-24T03:29:31;8.50;99.90
5617;DHT22;2830;50.656;7.568;2023-04-24T03:31:58;8.50;99.90
5617;DHT22;2830;50.656;7.568;2023-04-24T03:34:25;8.50;99.90
5617;DHT22;2830;50.656;7.568;2023-04-24T03:36:53;8.50;99.90
5617;DHT22;2830;50.656;7.568;2023-04-24T03:39:19;8.50;99.90
5617;DHT22;2830;50.656;7.568;2023-04-24T03:41:46;8.50;99.90
5617;DHT22;2830;50.656;7.568;2023-04-24T03:44:13;8.40;99.90
5617;DHT22;2830;50.656;7.568;2023-04-24T03:46:39;8.40;99.90
5617;DHT22;2830;50.656;7.568;2023-04-24T03:49:06;8.40;99.90
5617;DHT22;2830;50.656;7.568;2023-04-24T03:51:33;8.30;99.90
5617;DHT22;2830;50.656;7.568;2023-04-24T03:53:59;8.40;99.90
5617;DHT22;2830;50.656;7.568;2023-04-24T03:56:26;8.30;99.90
5617;DHT22;2830;50.656;7.568;2023-04-24T03:58:53;8.30;99.90
5617;DHT22;2830;50.656;7.568;2023-04-24T04:01:19;8.20;99.90
5617;DHT22;2830;50.656;7.568;2023-04-24T04:03:47;8.20;99.90
5617;DHT22;2830;50.656;7.568;2023-04-24T04:06:14;8.10;99.90
5617;DHT22;2830;50.656;7.568;2023-04-24T04:08:41;8.00;99.70
5617;DHT22;2830;50.656;7.568;2023-04-24T04:11:07;8.00;99.90
5617;DHT22;2830;50.656;7.568;2023-04-24T04:13:34;8.00;99.90
5617;DHT22;2830;50.656;7.568;2023-04-24T04:16:00;8.00;99.90
5617;DHT22;2830;50.656;7.568;2023-04-24T04:18:27;7.80;99.90
5617;DHT22;2830;50.656;7.568;2023-04-24T04:20:54;7.80;99.90
5617;DHT22;2830;50.656;7.568;2023-04-24T04:23:20;7.80;99.90
5617;DHT22;2830;50.656;7.568;2023-04-24T04:25:47;7.80;99.90
5617;DHT22;2830;50.656;7.568;2023-04-24T04:28:15;7.80;99.90
5617;DHT22;2830;50.656;7.568;2023-04-24T04:30:42;7.90;99.90
5617;DHT22;2830;50.656;7.568;2023-04-24T04:33:08;7.90;99.90
5617;DHT22;2830;50.656;7.568;2023-04-24T04:35:37;7.90;99.90
5617;DHT22;2830;50.656;7.568;2023-04-24T04:38:03;7.90;99.90
5617;DHT22;2830;50.656;7.568;2023-04-24T04:40:31;7.90;99.90
5617;DHT22;2830;50.656;7.568;2023-04-24T04:42:58;7.90;99.90
5617;DHT22;2830;50.656;7.568;2023-04-24T04:45:24;7.90;99.90
5617;DHT22;2830;50.656;7.568;2023-04-24T04:47:53;7.80;99.90
5617;DHT22;2830;50.656;7.568;2023-04-24T04:50:21;7.80;99.90
5617;DHT22;2830;50.656;7.568;2023-04-24T04:52:49;7.80;99.90
5617;DHT22;2830;50.656;7.568;2023-04-24T04:55:15;7.80;99.90
5617;DHT22;2830;50.656;7.568;2023-04-24T04:57:42;7.80;99.90
5617;DHT22;2830;50.656;7.568;2023-04-24T05:00:09;7.90;99.90
5617;DHT22;2830;50.656;7.568;2023-04-24T05:02:38;7.90;99.90
5617;DHT22;2830;50.656;7.568;2023-04-24T05:05:06;8.10;99.90
5617;DHT22;2830;50.656;7.568;2023-04-24T05:07:33;8.20;99.90
5617;DHT22;2830;50.656;7.568;2023-04-24T05:10:01;8.30;99.90
5617;DHT22;2830;50.656;7.568;2023-04-24T05:12:27;8.50;99.90
5617;DHT22;2830;50.656;7.568;2023-04-24T05:14:54;8.50;99.70
5617;DHT22;2830;50.656;7.568;2023-04-24T05:17:21;8.60;99.30
5617;DHT22;2830;50.656;7.568;2023-04-24T05:19:47;8.60;99.50
5617;DHT22;2830;50.656;7.568;2023-04-24T05:22:14;8.60;99.30
5617;DHT22;2830;50.656;7.568;2023-04-24T05:24:41;8.60;99.10
5617;DHT22;2830;50.656;7.568;2023-04-24T05:27:08;8.70;99.70
5617;DHT22;2830;50.656;7.568;2023-04-24T05:29:35;8.70;99.70
5617;DHT22;2830;50.656;7.568;2023-04-24T05:32:02;8.80;99.00
5617;DHT22;2830;50.656;7.568;2023-04-24T05:34:28;8.80;98.40
5617;DHT22;2830;50.656;7.568;2023-04-24T05:36:55;8.80;97.60
5617;DHT22;2830;50.656;7.568;2023-04-24T05:39:22;8.70;98.50
5617;DHT22;2830;50.656;7.568;2023-04-24T05:41:48;8.80;98.10
5617;DHT22;2830;50.656;7.568;2023-04-24T05:44:15;8.80;98.20
5617;DHT22;2830;50.656;7.568;2023-04-24T05:46:42;8.90;98.60
5617;DHT22;2830;50.656;7.568;2023-04-24T05:49:08;9.00;98.50
5617;DHT22;2830;50.656;7.568;2023-04-24T05:51:35;9.00;98.10
5617;DHT22;2830;50.656;7.568;2023-04-24T05:54:02;9.10;97.80
5617;DHT22;2830;50.656;7.568;2023-04-24T05:56:29;9.20;98.00
5617;DHT22;2830;50.656;7.568;2023-04-24T05:58:57;9.60;98.00
5617;DHT22;2830;50.656;7.568;2023-04-24T06:01:23;10.10;96.60
5617;DHT22;2830;50.656;7.568;2023-04-24T06:03:51;10.50;95.80
5617;DHT22;2830;50.656;7.568;2023-04-24T06:06:19;10.80;95.00
5617;DHT22;2830;50.656;7.568;2023-04-24T06:08:46;11.00;94.00
5617;DHT22;2830;50.656;7.568;2023-04-24T06:11:12;11.20;94.30
5617;DHT22;2830;50.656;7.568;2023-04-24T06:13:39;11.30;94.80
5617;DHT22;2830;50.656;7.568;2023-04-24T06:16:06;11.30;93.30
5617;DHT22;2830;50.656;7.568;2023-04-24T06:18:33;11.20;93.90
5617;DHT22;2830;50.656;7.568;2023-04-24T06:21:00;11.30;93.50
5617;DHT22;2830;50.656;7.568;2023-04-24T06:23:26;11.60;93.10
5617;DHT22;2830;50.656;7.568;2023-04-24T06:25:53;11.90;93.00
5617;DHT22;2830;50.656;7.568;2023-04-24T06:28:20;12.00;92.20
5617;DHT22;2830;50.656;7.568;2023-04-24T06:30:46;12.10;92.80
5617;DHT22;2830;50.656;7.568;2023-04-24T06:33:13;12.30;90.90
5617;DHT22;2830;50.656;7.568;2023-04-24T06:35:44;12.20;90.80
5617;DHT22;2830;50.656;7.568;2023-04-24T06:38:11;12.60;91.20
5617;DHT22;2830;50.656;7.568;2023-04-24T06:40:38;12.70;90.00
5617;DHT22;2830;50.656;7.568;2023-04-24T06:43:04;12.60;91.00
5617;DHT22;2830;50.656;7.568;2023-04-24T06:45:32;12.30;90.80
5617;DHT22;2830;50.656;7.568;2023-04-24T06:47:59;12.00;91.40
5617;DHT22;2830;50.656;7.568;2023-04-24T06:50:26;11.60;92.90
5617;DHT22;2830;50.656;7.568;2023-04-24T06:52:52;11.40;93.30
5617;DHT22;2830;50.656;7.568;2023-04-24T06:55:19;11.10;92.90
5617;DHT22;2830;50.656;7.568;2023-04-24T06:57:46;11.00;93.90
5617;DHT22;2830;50.656;7.568;2023-04-24T07:00:13;10.80;94.00
5617;DHT22;2830;50.656;7.568;2023-04-24T07:02:39;10.60;94.20
5617;DHT22;2830;50.656;7.568;2023-04-24T07:05:06;10.50;94.60
5617;DHT22;2830;50.656;7.568;2023-04-24T07:07:35;10.40;95.20
5617;DHT22;2830;50.656;7.568;2023-04-24T07:10:05;10.30;95.30
5617;DHT22;2830;50.656;7.568;2023-04-24T07:12:32;10.10;95.50
5617;DHT22;2830;50.656;7.568;2023-04-24T07:15:00;9.90;96.70
5617;DHT22;2830;50.656;7.568;2023-04-24T07:17:27;9.90;96.80
5617;DHT22;2830;50.656;7.568;2023-04-24T07:19:53;9.90;96.90
5617;DHT22;2830;50.656;7.568;2023-04-24T07:22:20;9.90;97.00
5617;DHT22;2830;50.656;7.568;2023-04-24T07:24:47;9.80;96.20
5617;DHT22;2830;50.656;7.568;2023-04-24T07:27:14;9.80;97.00
5617;DHT22;2830;50.656;7.568;2023-04-24T07:29:41;9.80;97.10
5617;DHT22;2830;50.656;7.568;2023-04-24T07:32:09;9.90;97.30
5617;DHT22;2830;50.656;7.568;2023-04-24T07:34:35;10.10;97.70
5617;DHT22;2830;50.656;7.568;2023-04-24T07:37:02;10.10;96.80
5617;DHT22;2830;50.656;7.568;2023-04-24T07:39:29;10.00;98.90
5617;DHT22;2830;50.656;7.568;2023-04-24T07:41:56;9.90;98.90
5617;DHT22;2830;50.656;7.568;2023-04-24T07:44:25;9.80;99.70
5617;DHT22;2830;50.656;7.568;2023-04-24T07:46:52;9.90;99.90
5617;DHT22;2830;50.656;7.568;2023-04-24T07:49:19;9.90;99.90
5617;DHT22;2830;50.656;7.568;2023-04-24T07:51:45;9.80;99.90
5617;DHT22;2830;50.656;7.568;2023-04-24T07:54:12;9.80;99.90
5617;DHT22;2830;50.656;7.568;2023-04-24T07:56:40;9.90;99.90
5617;DHT22;2830;50.656;7.568;2023-04-24T07:59:08;9.90;99.90
5617;DHT22;2830;50.656;7.568;2023-04-24T08:01:36;9.90;99.90
5617;DHT22;2830;50.656;7.568;2023-04-24T08:04:02;9.80;99.90
5617;DHT22;2830;50.656;7.568;2023-04-24T08:06:30;9.70;99.90
5617;DHT22;2830;50.656;7.568;2023-04-24T08:08:59;9.70;99.90
5617;DHT22;2830;50.656;7.568;2023-04-24T08:11:26;9.70;99.90
5617;DHT22;2830;50.656;7.568;2023-04-24T08:13:53;9.70;99.90
5617;DHT22;2830;50.656;7.568;2023-04-24T08:16:21;9.70;99.90
5617;DHT22;2830;50.656;7.568;2023-04-24T08:18:48;9.60;99.90
5617;DHT22;2830;50.656;7.568;2023-04-24T08:21:14;9.60;99.90
5617;DHT22;2830;50.656;7.568;2023-04-24T08:23:43;9.50;99.90
5617;DHT22;2830;50.656;7.568;2023-04-24T08:26:10;9.50;99.90
5617;DHT22;2830;50.656;7.568;2023-04-24T08:28:38;9.50;99.90
5617;DHT22;2830;50.656;7.568;2023-04-24T08:31:05;9.50;99.90
5617;DHT22;2830;50.656;7.568;2023-04-24T08:33:31;9.50;99.90
5617;DHT22;2830;50.656;7.568;2023-04-24T08:36:05;9.50;99.90
5617;DHT22;2830;50.656;7.568;2023-04-24T08:38:33;9.50;99.90
5617;DHT22;2830;50.656;7.568;2023-04-24T08:41:01;9.40;99.90
5617;DHT22;2830;50.656;7.568;2023-04-24T08:43:29;9.30;99.90
5617;DHT22;2830;50.656;7.568;2023-04-24T08:45:57;9.30;99.90
5617;DHT22;2830;50.656;7.568;2023-04-24T08:48:24;9.20;99.90
5617;DHT22;2830;50.656;7.568;2023-04-24T08:50:58;9.20;99.90
5617;DHT22;2830;50.656;7.568;2023-04-24T08:53:26;9.10;99.90
5617;DHT22;2830;50.656;7.568;2023-04-24T08:55:54;9.10;99.90
5617;DHT22;2830;50.656;7.568;2023-04-24T08:58:23;9.10;99.90
5617;DHT22;2830;50.656;7.568;2023-04-24T09:00:54;9.10;99.90
5617;DHT22;2830;50.656;7.568;2023-04-24T09:03:21;9.20;99.90
5617;DHT22;2830;50.656;7.568;2023-04-24T09:05:49;9.10;99.90
5617;DHT22;2830;50.656;7.568;2023-04-24T09:08:18;9.10;99.90
5617;DHT22;2830;50.656;7.568;2023-04-24T09:10:45;9.10;99.90
5617;DHT22;2830;50.656;7.568;2023-04-24T09:13:15;8.90;99.90
5617;DHT22;2830;50.656;7.568;2023-04-24T09:15:42;8.90;99.90
5617;DHT22;2830;50.656;7.568;2023-04-24T09:18:10;8.90;99.90
5617;DHT22;2830;50.656;7.568;2023-04-24T09:21:00;8.80;99.90
5617;DHT22;2830;50.656;7.568;2023-04-24T09:23:29;8.60;99.90
5617;DHT22;2830;50.656;7.568;2023-04-24T09:25:57;8.40;99.90
5617;DHT22;2830;50.656;7.568;2023-04-24T09:28:38;8.20;99.90
5617;DHT22;2830;50.656;7.568;2023-04-24T09:31:17;8.10;99.90
5617;DHT22;2830;50.656;7.568;2023-04-24T09:38:59;8.10;99.90
5617;DHT22;2830;50.656;7.568;2023-04-24T09:41:27;8.10;99.90
5617;DHT22;2830;50.656;7.568;2023-04-24T09:43:55;8.30;99.90
5617;DHT22;2830;50.656;7.568;2023-04-24T09:46:29;8.30;99.90
5617;DHT22;2830;50.656;7.568;2023-04-24T09:49:08;8.20;99.90
5617;DHT22;2830;50.656;7.568;2023-04-24T09:51:37;8.10;99.90
5617;DHT22;2830;50.656;7.568;2023-04-24T09:54:14;8.20;99.90
5617;DHT22;2830;50.656;7.568;2023-04-24T09:56:43;8.20;99.90
5617;DHT22;2830;50.656;7.568;2023-04-24T09:59:12;8.30;99.90
5617;DHT22;2830;50.656;7.568;2023-04-24T10:01:39;8.30;99.90
5617;DHT22;2830;50.656;7.568;2023-04-24T10:04:20;8.30;99.90
5617;DHT22;2830;50.656;7.568;2023-04-24T10:06:48;8.40;99.90
5617;DHT22;2830;50.656;7.568;2023-04-24T10:09:19;8.50;99.90
5617;DHT22;2830;50.656;7.568;2023-04-24T10:11:49;8.60;99.90
5617;DHT22;2830;50.656;7.568;2023-04-24T10:14:18;8.60;99.90
5617;DHT22;2830;50.656;7.568;2023-04-24T10:16:46;8.60;99.90
5617;DHT22;2830;50.656;7.568;2023-04-24T10:19:16;8.70;99.90
5617;DHT22;2830;50.656;7.568;2023-04-24T10:21:45;8.70;99.90
5617;DHT22;2830;50.656;7.568;2023-04-24T10:24:16;8.70;99.90
5617;DHT22;2830;50.656;7.568;2023-04-24T10:26:45;8.70;99.90
5617;DHT22;2830;50.656;7.568;2023-04-24T10:29:13;8.70;99.90
5617;DHT22;2830;50.656;7.568;2023-04-24T10:31:41;8.60;99.90
5617;DHT22;2830;50.656;7.568;2023-04-24T10:34:09;8.50;99.90
5617;DHT22;2830;50.656;7.568;2023-04-24T10:36:40;8.20;99.90
5617;DHT22;2830;50.656;7.568;2023-04-24T10:39:11;8.30;99.90
5617;DHT22;2830;50.656;7.568;2023-04-24T10:41:39;8.40;99.90
5617;DHT22;2830;50.656;7.568;2023-04-24T10:44:11;8.50;99.90
5617;DHT22;2830;50.656;7.568;2023-04-24T10:46:39;8.50;99.90
5617;DHT22;2830;50.656;7.568;2023-04-24T10:49:09;8.60;99.90
5617;DHT22;2830;50.656;7.568;2023-04-24T10:51:53;8.80;99.90
5617;DHT22;2830;50.656;7.568;2023-04-24T11:02:56;8.80;99.90
5617;DHT22;2830;50.656;7.568;2023-04-24T11:05:55;9.00;99.90
5617;DHT22;2830;50.656;7.568;2023-04-24T11:08:25;9.20;99.90
5617;DHT22;2830;50.656;7.568;2023-04-24T11:10:57;9.30;99.90
5617;DHT22;2830;50.656;7.568;2023-04-24T11:13:27;9.50;99.90
5617;DHT22;2830;50.656;7.568;2023-04-24T11:19:09;9.50;99.90
5617;DHT22;2830;50.656;7.568;2023-04-24T11:27:00;8.90;99.90
5617;DHT22;2830;50.656;7.568;2023-04-24T11:29:41;9.00;99.90
5617;DHT22;2830;50.656;7.568;2023-04-24T11:32:19;9.10;99.90
5617;DHT22;2830;50.656;7.568;2023-04-24T11:34:54;9.30;99.90
5617;DHT22;2830;50.656;7.568;2023-04-24T11:37:23;9.50;99.90
5617;DHT22;2830;50.656;7.568;2023-04-24T11:39:52;9.50;99.90
5617;DHT22;2830;50.656;7.568;2023-04-24T11:42:21;9.70;99.90
5617;DHT22;2830;50.656;7.568;2023-04-24T11:44:47;10.50;99.90
5617;DHT22;2830;50.656;7.568;2023-04-24T11:47:15;11.30;99.90
5617;DHT22;2830;50.656;7.568;2023-04-24T11:49:42;11.70;99.90
5617;DHT22;2830;50.656;7.568;2023-04-24T11:52:09;12.30;99.90
5617;DHT22;2830;50.656;7.568;2023-04-24T11:54:37;12.40;99.40
5617;DHT22;2830;50.656;7.568;2023-04-24T11:57:05;12.30;99.90
5617;DHT22;2830;50.656;7.568;2023-04-24T11:59:36;12.10;99.90
5617;DHT22;2830;50.656;7.568;2023-04-24T12:02:03;11.80;99.90
5617;DHT22;2830;50.656;7.568;2023-04-24T12:04:39;11.20;99.90
5617;DHT22;2830;50.656;7.568;2023-04-24T12:07:07;10.90;99.90
5617;DHT22;2830;50.656;7.568;2023-04-24T12:10:00;10.70;99.90
5617;DHT22;2830;50.656;7.568;2023-04-24T12:12:27;10.40;99.90
5617;DHT22;2830;50.656;7.568;2023-04-24T12:14:56;10.10;99.90
5617;DHT22;2830;50.656;7.568;2023-04-24T12:17:32;9.90;99.90
5617;DHT22;2830;50.656;7.568;2023-04-24T12:20:00;9.90;99.90
5617;DHT22;2830;50.656;7.568;2023-04-24T12:22:28;9.90;99.90
5617;DHT22;2830;50.656;7.568;2023-04-24T12:25:03;9.80;99.90
5617;DHT22;2830;50.656;7.568;2023-04-24T12:27:32;9.80;99.90
5617;DHT22;2830;50.656;7.568;2023-04-24T12:30:01;10.00;99.90
5617;DHT22;2830;50.656;7.568;2023-04-24T12:32:28;10.20;99.90
5617;DHT22;2830;50.656;7.568;2023-04-24T12:34:55;10.20;99.90
5617;DHT22;2830;50.656;7.568;2023-04-24T12:37:26;10.10;99.90
5617;DHT22;2830;50.656;7.568;2023-04-24T12:42:34;10.30;99.90
5617;DHT22;2830;50.656;7.568;2023-04-24T12:45:05;10.40;99.90
5617;DHT22;2830;50.656;7.568;2023-04-24T12:47:33;10.90;99.90
5617;DHT22;2830;50.656;7.568;2023-04-24T12:50:01;11.10;99.90
5617;DHT22;2830;50.656;7.568;2023-04-24T12:52:29;11.80;99.90
5617;DHT22;2830;50.656;7.568;2023-04-24T12:55:00;11.90;99.90
5617;DHT22;2830;50.656;7.568;2023-04-24T12:57:30;12.20;99.90
5617;DHT22;2830;50.656;7.568;2023-04-24T12:59:58;12.10;98.60
5617;DHT22;2830;50.656;7.568;2023-04-24T13:02:27;11.70;99.60
5617;DHT22;2830;50.656;7.568;2023-04-24T13:04:55;11.20;99.90
5617;DHT22;2830;50.656;7.568;2023-04-24T13:07:22;10.70;99.90
5617;DHT22;2830;50.656;7.568;2023-04-24T13:09:50;11.20;99.90
5617;DHT22;2830;50.656;7.568;2023-04-24T13:12:17;11.80;99.90
5617;DHT22;2830;50.656;7.568;2023-04-24T13:14:44;12.30;99.90
5617;DHT22;2830;50.656;7.568;2023-04-24T13:17:12;12.60;99.90
5617;DHT22;2830;50.656;7.568;2023-04-24T13:19:40;12.50;99.90
5617;DHT22;2830;50.656;7.568;2023-04-24T13:22:09;12.60;99.70
5617;DHT22;2830;50.656;7.568;2023-04-24T13:24:37;12.50;98.30
5617;DHT22;2830;50.656;7.568;2023-04-24T13:27:07;13.10;99.10
5617;DHT22;2830;50.656;7.568;2023-04-24T13:29:33;13.50;98.10
5617;DHT22;2830;50.656;7.568;2023-04-24T13:32:00;13.60;98.50
5617;DHT22;2830;50.656;7.568;2023-04-24T13:34:27;13.60;97.60
5617;DHT22;2830;50.656;7.568;2023-04-24T13:36:55;13.10;96.00
5617;DHT22;2830;50.656;7.568;2023-04-24T13:39:23;12.70;97.50
5617;DHT22;2830;50.656;7.568;2023-04-24T13:41:50;12.30;98.80
5617;DHT22;2830;50.656;7.568;2023-04-24T13:44:17;11.90;99.20
5617;DHT22;2830;50.656;7.568;2023-04-24T13:46:46;11.50;99.80
5617;DHT22;2830;50.656;7.568;2023-04-24T13:49:14;11.10;99.90
5617;DHT22;2830;50.656;7.568;2023-04-24T13:51:41;10.70;99.90
5617;DHT22;2830;50.656;7.568;2023-04-24T13:54:08;10.50;99.90
5617;DHT22;2830;50.656;7.568;2023-04-24T13:56:35;10.30;99.90
5617;DHT22;2830;50.656;7.568;2023-04-24T13:59:02;10.20;99.90
5617;DHT22;2830;50.656;7.568;2023-04-24T14:01:28;10.10;99.90
5617;DHT22;2830;50.656;7.568;2023-04-24T14:03:56;10.30;99.90
5617;DHT22;2830;50.656;7.568;2023-04-24T14:06:23;10.40;99.90
5617;DHT22;2830;50.656;7.568;2023-04-24T14:08:50;10.70;99.90
5617;DHT22;2830;50.656;7.568;2023-04-24T14:11:18;11.10;99.90
5617;DHT22;2830;50.656;7.568;2023-04-24T14:13:45;11.50;99.90
5617;DHT22;2830;50.656;7.568;2023-04-24T14:16:12;11.90;99.90
5617;DHT22;2830;50.656;7.568;2023-04-24T14:18:40;12.30;99.90
5617;DHT22;2830;50.656;7.568;2023-04-24T14:21:07;12.30;99.00
5617;DHT22;2830;50.656;7.568;2023-04-24T14:23:33;12.20;99.90
5617;DHT22;2830;50.656;7.568;2023-04-24T14:26:00;12.10;98.70
5617;DHT22;2830;50.656;7.568;2023-04-24T14:28:27;12.40;99.90
5617;DHT22;2830;50.656;7.568;2023-04-24T14:30:54;12.50;99.90
5617;DHT22;2830;50.656;7.568;2023-04-24T14:33:20;12.60;97.00
5617;DHT22;2830;50.656;7.568;2023-04-24T14:35:47;12.30;96.00
5617;DHT22;2830;50.656;7.568;2023-04-24T14:38:14;12.10;96.60
5617;DHT22;2830;50.656;7.568;2023-04-24T14:40:41;11.90;96.50
5617;DHT22;2830;50.656;7.568;2023-04-24T14:43:11;12.00;98.30
5617;DHT22;2830;50.656;7.568;2023-04-24T14:45:38;12.00;96.80
5617;DHT22;2830;50.656;7.568;2023-04-24T14:48:06;11.90;96.20
5617;DHT22;2830;50.656;7.568;2023-04-24T14:50:34;12.00;96.50
5617;DHT22;2830;50.656;7.568;2023-04-24T14:53:01;12.20;95.60
5617;DHT22;2830;50.656;7.568;2023-04-24T14:55:28;12.20;95.10
5617;DHT22;2830;50.656;7.568;2023-04-24T14:57:55;12.10;95.60
5617;DHT22;2830;50.656;7.568;2023-04-24T15:00:22;11.80;95.10
5617;DHT22;2830;50.656;7.568;2023-04-24T15:02:52;11.40;96.50
5617;DHT22;2830;50.656;7.568;2023-04-24T15:05:19;11.20;97.00
5617;DHT22;2830;50.656;7.568;2023-04-24T15:07:46;11.30;97.30
5617;DHT22;2830;50.656;7.568;2023-04-24T15:10:13;11.40;97.30
5617;DHT22;2830;50.656;7.568;2023-04-24T15:12:39;11.50;97.60
5617;DHT22;2830;50.656;7.568;2023-04-24T15:15:07;11.40;97.20
5617;DHT22;2830;50.656;7.568;2023-04-24T15:17:34;11.20;97.40
5617;DHT22;2830;50.656;7.568;2023-04-24T15:20:01;11.00;97.80
5617;DHT22;2830;50.656;7.568;2023-04-24T15:22:29;10.90;98.70
5617;DHT22;2830;50.656;7.568;2023-04-24T15:24:56;10.60;98.90
5617;DHT22;2830;50.656;7.568;2023-04-24T15:27:22;10.40;99.90
5617;DHT22;2830;50.656;7.568;2023-04-24T15:29:49;10.40;99.90
5617;DHT22;2830;50.656;7.568;2023-04-24T15:32:16;10.40;99.90
5617;DHT22;2830;50.656;7.568;2023-04-24T15:34:42;10.60;99.90
5617;DHT22;2830;50.656;7.568;2023-04-24T15:37:11;11.00;99.90
5617;DHT22;2830;50.656;7.568;2023-04-24T15:39:38;11.40;99.90
5617;DHT22;2830;50.656;7.568;2023-04-24T15:42:04;11.60;99.70
5617;DHT22;2830;50.656;7.568;2023-04-24T15:44:31;11.80;98.70
5617;DHT22;2830;50.656;7.568;2023-04-24T15:47:00;11.80;99.10
5617;DHT22;2830;50.656;7.568;2023-04-24T15:49:27;11.70;98.80
5617;DHT22;2830;50.656;7.568;2023-04-24T15:51:53;11.80;98.90
5617;DHT22;2830;50.656;7.568;2023-04-24T15:54:21;11.80;98.50
5617;DHT22;2830;50.656;7.568;2023-04-24T15:56:49;11.80;98.80
5617;DHT22;2830;50.656;7.568;2023-04-24T15:59:17;11.90;98.30
5617;DHT22;2830;50.656;7.568;2023-04-24T16:01:44;12.00;99.20
5617;DHT22;2830;50.656;7.568;2023-04-24T16:04:11;11.90;96.90
5617;DHT22;2830;50.656;7.568;2023-04-24T16:06:38;11.70;96.80
5617;DHT22;2830;50.656;7.568;2023-04-24T16:09:05;11.70;98.10
5617;DHT22;2830;50.656;7.568;2023-04-24T16:11:32;11.90;98.70
5617;DHT22;2830;50.656;7.568;2023-04-24T16:13:59;12.00;96.40
5617;DHT22;2830;50.656;7.568;2023-04-24T16:16:26;12.00;97.30
5617;DHT22;2830;50.656;7.568;2023-04-24T16:18:53;12.10;97.30
5617;DHT22;2830;50.656;7.568;2023-04-24T16:21:20;12.10;96.10
5617;DHT22;2830;50.656;7.568;2023-04-24T16:23:46;12.20;96.80
5617;DHT22;2830;50.656;7.568;2023-04-24T16:26:13;12.20;96.60
5617;DHT22;2830;50.656;7.568;2023-04-24T16:28:41;12.20;97.20
5617;DHT22;2830;50.656;7.568;2023-04-24T16:31:08;12.00;95.10
5617;DHT22;2830;50.656;7.568;2023-04-24T16:33:35;11.80;94.30
5617;DHT22;2830;50.656;7.568;2023-04-24T16:36:02;11.70;95.00
5617;DHT22;2830;50.656;7.568;2023-04-24T16:38:32;11.60;94.80